Time;durP1;ratioP1;P1;durP2;ratioP2;P2;SDS_P1;SDS_P2;PMS_P1;PMS_P2;Temp;Humidity;BMP_temperature;BMP_pressure;BME280_temperature;BME280_humidity;BME280_pressure;Samples;Min_cycle;Max_cycle;Signal;HPM_P1;HPM_P2
2023/09/20 00:01:58;;;;;;;2.33;0.70;;;;;;;21.79;48.18;100629.22;5034836;27;97773;-55
2023/09/20 00:04:23;;;;;;;2.07;0.97;;;;;;;21.78;48.41;100630.50;5032864;27;108853;-55
2023/09/20 00:06:49;;;;;;;1.00;0.90;;;;;;;21.79;48.36;100631.25;5034318;27;97716;-55
2023/09/20 00:09:16;;;;;;;2.03;1.00;;;;;;;21.79;48.32;100637.63;5034047;27;97216;-55
2023/09/20 00:11:44;;;;;;;1.93;0.90;;;;;;;21.81;48.39;100628.63;5034664;27;97964;-56
2023/09/20 00:14:09;;;;;;;2.67;1.03;;;;;;;21.78;48.35;100627.72;5035823;27;97106;-55
2023/09/20 00:16:35;;;;;;;2.30;0.80;;;;;;;21.78;48.39;100633.31;5035038;27;97189;-55
2023/09/20 00:19:00;;;;;;;1.17;1.07;;;;;;;21.78;48.40;100632.56;5037426;27;98241;-55
2023/09/20 00:21:26;;;;;;;1.50;0.97;;;;;;;21.77;48.47;100626.25;5034708;27;105465;-55
2023/09/20 00:23:51;;;;;;;2.70;1.10;;;;;;;21.77;48.46;100634.66;5035996;27;97380;-56
2023/09/20 00:26:18;;;;;;;3.37;1.60;;;;;;;21.78;48.45;100630.50;5034138;27;98396;-54
2023/09/20 00:28:48;;;;;;;1.63;0.90;;;;;;;21.77;48.46;100634.66;5033208;27;96853;-55
2023/09/20 00:31:15;;;;;;;3.73;1.30;;;;;;;21.77;48.53;100622.69;5033688;27;97147;-55
2023/09/20 00:33:40;;;;;;;1.17;0.80;;;;;;;21.77;48.57;100631.09;5032387;27;97232;-55
2023/09/20 00:36:06;;;;;;;2.47;1.00;;;;;;;21.74;48.61;100630.19;5033820;27;97101;-55
2023/09/20 00:38:31;;;;;;;3.50;0.97;;;;;;;21.74;48.59;100632.22;5036175;27;96736;-56
2023/09/20 00:40:57;;;;;;;1.70;1.13;;;;;;;21.72;48.56;100641.22;5035217;27;97238;-55
2023/09/20 00:43:27;;;;;;;3.43;1.13;;;;;;;21.73;48.56;100630.75;5037543;27;100042;-56
2023/09/20 00:45:52;;;;;;;2.40;1.00;;;;;;;21.72;48.64;100634.84;5035773;27;97289;-55
2023/09/20 00:48:19;;;;;;;1.97;0.97;;;;;;;21.71;48.70;100639.72;5033091;27;97246;-55
2023/09/20 00:50:44;;;;;;;3.70;0.97;;;;;;;21.71;48.73;100627.78;5035318;27;97512;-55
2023/09/20 00:53:13;;;;;;;2.20;1.10;;;;;;;21.70;48.71;100631.88;5033886;27;97288;-55
2023/09/20 00:55:42;;;;;;;1.63;1.00;;;;;;;21.70;48.86;100632.63;5033560;27;97069;-55
2023/09/20 00:58:12;;;;;;;2.87;1.23;;;;;;;21.71;48.76;100634.09;5035442;27;97144;-56
2023/09/20 01:00:40;;;;;;;2.40;1.10;;;;;;;21.70;48.75;100629.84;5035478;27;97149;-54
2023/09/20 01:03:06;;;;;;;2.40;0.83;;;;;;;21.70;48.90;100623.47;5031833;27;97558;-55
2023/09/20 01:05:36;;;;;;;3.20;1.07;;;;;;;21.69;48.88;100633.22;5033238;27;96689;-55
2023/09/20 01:08:03;;;;;;;3.23;1.07;;;;;;;21.68;48.81;100624.06;5035686;27;97589;-55
2023/09/20 01:10:31;;;;;;;1.83;0.90;;;;;;;21.66;48.97;100621.09;5033326;27;96940;-55
2023/09/20 01:12:58;;;;;;;1.97;1.00;;;;;;;21.65;48.97;100625.19;5037086;27;97371;-56
2023/09/20 01:15:26;;;;;;;1.40;0.87;;;;;;;21.67;49.04;100628.16;5038386;27;97606;-55
2023/09/20 01:17:55;;;;;;;4.47;0.87;;;;;;;21.68;48.93;100638.06;5035754;27;97121;-55
2023/09/20 01:20:21;;;;;;;2.07;1.00;;;;;;;21.69;49.04;100630.41;5032856;27;97437;-55
2023/09/20 01:22:54;;;;;;;1.50;1.20;;;;;;;21.69;49.05;100628.34;5034997;27;96828;-56
2023/09/20 01:25:26;;;;;;;3.33;0.90;;;;;;;21.69;49.16;100631.13;5034296;27;97395;-55
2023/09/20 01:27:56;;;;;;;1.63;1.10;;;;;;;21.72;49.07;100634.84;5034727;27;97126;-56
2023/09/20 01:30:27;;;;;;;1.83;0.90;;;;;;;21.73;49.10;100625.16;5034827;27;97409;-55
2023/09/20 01:32:54;;;;;;;2.50;1.07;;;;;;;21.71;49.09;100627.78;5033746;27;97267;-55
2023/09/20 01:35:23;;;;;;;1.53;1.10;;;;;;;21.70;49.13;100627.03;5032066;27;97146;-55
2023/09/20 01:37:49;;;;;;;1.70;1.00;;;;;;;21.69;49.22;100633.94;5034504;27;96997;-55
2023/09/20 01:40:15;;;;;;;2.03;1.10;;;;;;;21.70;49.21;100624.22;5031643;27;97171;-55
2023/09/20 01:42:44;;;;;;;5.13;1.00;;;;;;;21.71;49.37;100617.31;5036541;27;96989;-56
2023/09/20 01:45:18;;;;;;;1.63;1.03;;;;;;;21.70;49.25;100617.88;5036822;27;96890;-55
2023/09/20 01:47:45;;;;;;;1.00;0.83;;;;;;;21.69;49.26;100616.41;5032627;27;97025;-55
2023/09/20 01:50:19;;;;;;;1.40;0.97;;;;;;;21.70;49.35;100623.47;5034572;27;96885;-56
2023/09/20 01:52:46;;;;;;;1.20;0.83;;;;;;;21.69;49.46;100616.41;5032005;27;96813;-55
2023/09/20 01:55:15;;;;;;;3.20;1.30;;;;;;;21.68;49.43;100624.06;5035437;27;97374;-55
2023/09/20 01:57:45;;;;;;;1.53;1.20;;;;;;;21.71;49.59;100616.59;5034067;27;97210;-55
2023/09/20 02:00:16;;;;;;;1.90;0.70;;;;;;;21.71;49.46;100611.69;5033078;27;97021;-55
2023/09/20 02:02:43;;;;;;;2.50;1.10;;;;;;;21.72;49.49;100606.84;5039569;27;97469;-55
2023/09/20 02:05:10;;;;;;;4.30;1.00;;;;;;;21.71;49.36;100622.19;5035687;27;97179;-55
2023/09/20 02:07:35;;;;;;;1.90;0.90;;;;;;;21.69;49.62;100605.94;5033309;27;96945;-55
2023/09/20 02:10:02;;;;;;;2.33;1.30;;;;;;;21.67;49.68;100602.97;5036146;27;97506;-55
2023/09/20 02:12:27;;;;;;;2.40;0.93;;;;;;;21.69;49.61;100603.13;5038037;27;96780;-55
2023/09/20 02:14:52;;;;;;;3.80;1.00;;;;;;;21.67;49.48;100598.13;5036474;27;104185;-55
2023/09/20 02:17:18;;;;;;;1.40;0.87;;;;;;;21.70;49.70;100601.84;5038458;27;97455;-55
2023/09/20 02:19:45;;;;;;;1.80;0.83;;;;;;;21.72;49.46;100601.25;5036907;27;112837;-55
2023/09/20 02:22:12;;;;;;;1.90;0.87;;;;;;;21.71;49.74;100596.97;5035176;27;96950;-55
2023/09/20 02:24:38;;;;;;;1.40;0.90;;;;;;;21.73;49.72;100595.09;5036293;27;96873;-55
2023/09/20 02:27:08;;;;;;;3.37;1.40;;;;;;;21.71;49.83;100611.69;5037535;27;97075;-55
2023/09/20 02:29:34;;;;;;;2.30;1.00;;;;;;;21.74;49.79;100607.03;5036548;27;97351;-55
2023/09/20 02:32:00;;;;;;;2.73;1.20;;;;;;;21.75;49.80;100612.06;5036824;27;96828;-55
2023/09/20 02:34:26;;;;;;;2.97;1.10;;;;;;;21.76;49.73;100612.78;5035583;27;97233;-54
2023/09/20 02:36:51;;;;;;;3.23;1.10;;;;;;;21.73;49.80;100620.31;5035220;27;97108;-56
2023/09/20 02:39:18;;;;;;;3.37;0.93;;;;;;;21.71;49.96;100613.78;5034982;27;97791;-56
2023/09/20 02:41:44;;;;;;;1.60;1.10;;;;;;;21.74;49.92;100609.81;5038799;27;97494;-55
2023/09/20 02:44:09;;;;;;;2.27;1.30;;;;;;;21.76;50.00;100613.53;5037692;27;96589;-55
2023/09/20 02:46:34;;;;;;;2.20;1.03;;;;;;;21.77;49.89;100614.28;5037853;27;97271;-55
2023/09/20 02:49:00;;;;;;;2.87;1.57;;;;;;;21.75;49.83;100609.28;5035374;27;99209;-55
2023/09/20 02:51:25;;;;;;;1.47;1.20;;;;;;;21.76;49.86;100613.53;5032724;27;111118;-55
2023/09/20 02:53:50;;;;;;;2.97;1.23;;;;;;;21.76;49.88;100607.94;5035071;27;97058;-56
2023/09/20 02:56:17;;;;;;;3.30;1.10;;;;;;;21.76;49.97;100616.34;5037522;27;97319;-55
2023/09/20 02:58:47;;;;;;;1.50;0.90;;;;;;;21.76;49.94;100612.78;5035611;27;97645;-55
2023/09/20 03:01:15;;;;;;;3.00;1.20;;;;;;;21.79;49.97;100611.66;5038411;27;97164;-56
2023/09/20 03:03:41;;;;;;;1.90;1.37;;;;;;;21.81;49.89;100611.81;5035276;27;96758;-55
2023/09/20 03:06:09;;;;;;;1.17;0.90;;;;;;;21.81;49.87;100609.03;5035108;27;96824;-55
2023/09/20 03:08:35;;;;;;;2.33;1.30;;;;;;;21.82;50.04;100602.13;5037263;27;96840;-55
2023/09/20 03:11:00;;;;;;;5.93;1.20;;;;;;;21.79;50.04;100601.22;5032851;27;97252;-55
2023/09/20 03:13:27;;;;;;;3.23;1.10;;;;;;;21.82;50.02;100607.72;5036295;27;96992;-56
2023/09/20 03:15:54;;;;;;;2.00;1.20;;;;;;;21.81;49.96;100604.19;5036274;27;96791;-55
2023/09/20 03:18:22;;;;;;;2.00;1.17;;;;;;;21.81;50.09;100604.19;5035322;27;97810;-55
2023/09/20 03:20:49;;;;;;;1.53;0.90;;;;;;;21.82;50.11;100610.53;5035913;27;97445;-55
2023/09/20 03:23:14;;;;;;;4.30;1.20;;;;;;;21.80;50.07;100597.06;5037206;27;96924;-55
2023/09/20 03:25:40;;;;;;;2.43;1.23;;;;;;;21.80;50.06;100602.69;5038676;27;97073;-55
2023/09/20 03:28:07;;;;;;;1.50;1.40;;;;;;;21.80;50.17;100601.97;5032746;27;96901;-55
2023/09/20 03:30:33;;;;;;;1.33;0.90;;;;;;;21.80;50.18;100599.88;5036462;27;97484;-55
2023/09/20 03:32:59;;;;;;;1.50;0.90;;;;;;;21.82;50.11;100602.84;5035892;27;97305;-55
2023/09/20 03:35:24;;;;;;;3.10;1.10;;;;;;;21.82;50.22;100605.66;5033015;27;97227;-55
2023/09/20 03:37:49;;;;;;;2.43;1.20;;;;;;;21.83;50.16;100612.03;5032272;27;97417;-55
2023/09/20 03:40:21;;;;;;;2.00;0.90;;;;;;;21.83;50.17;100601.56;5034593;27;97066;-55
2023/09/20 03:42:54;;;;;;;2.53;1.07;;;;;;;21.85;50.13;100601.75;5037908;27;97034;-56
2023/09/20 03:45:20;;;;;;;1.63;0.90;;;;;;;21.82;50.07;100600.03;5027497;27;96875;-55
2023/09/20 03:47:49;;;;;;;2.17;1.10;;;;;;;21.82;50.39;100597.25;5033453;27;97342;-55
2023/09/20 03:50:18;;;;;;;1.40;1.10;;;;;;;21.82;50.22;100599.31;5032623;27;97205;-55
2023/09/20 03:52:43;;;;;;;2.50;1.00;;;;;;;21.81;50.23;100601.38;5035457;27;96690;-55
2023/09/20 03:55:09;;;;;;;1.57;1.20;;;;;;;21.82;50.38;100602.84;5037943;27;97101;-55
2023/09/20 03:57:37;;;;;;;4.03;1.80;;;;;;;21.82;50.26;100597.25;5034368;27;98023;-55
2023/09/20 04:00:06;;;;;;;2.50;1.60;;;;;;;21.85;50.30;100603.78;5036003;27;97208;-55
2023/09/20 04:02:32;;;;;;;1.60;1.03;;;;;;;21.87;50.24;100601.16;5036603;27;97108;-55
2023/09/20 04:05:00;;;;;;;2.87;1.50;;;;;;;21.87;50.42;100601.16;5037461;27;96711;-56
2023/09/20 04:07:28;;;;;;;2.23;1.10;;;;;;;21.89;50.29;100602.06;5034966;27;99899;-55
2023/09/20 04:09:53;;;;;;;1.60;1.50;;;;;;;21.90;50.32;100603.56;5034371;27;97239;-55
2023/09/20 04:12:19;;;;;;;3.70;1.30;;;;;;;21.87;50.29;100607.50;5035772;27;97719;-54
2023/09/20 04:14:44;;;;;;;3.77;1.73;;;;;;;21.89;50.45;100599.28;5033861;27;96810;-55
2023/09/20 04:17:10;;;;;;;2.20;1.43;;;;;;;21.88;50.40;100597.81;5037332;27;97151;-54
2023/09/20 04:19:39;;;;;;;5.20;1.33;;;;;;;21.87;50.38;100598.34;5034328;27;97113;-55
2023/09/20 04:22:06;;;;;;;2.17;1.33;;;;;;;21.87;50.52;100592.75;5032433;27;96841;-55
2023/09/20 04:24:32;;;;;;;1.93;1.00;;;;;;;21.86;50.42;100594.84;5033116;27;96616;-55
2023/09/20 04:26:58;;;;;;;3.13;1.30;;;;;;;21.85;50.47;100598.19;5033190;27;97287;-55
2023/09/20 04:29:25;;;;;;;2.07;1.53;;;;;;;21.84;50.50;100602.31;5037822;27;98441;-55
2023/09/20 04:31:50;;;;;;;3.27;1.13;;;;;;;21.85;50.50;100598.19;5033514;27;96679;-55
2023/09/20 04:34:16;;;;;;;3.60;1.30;;;;;;;21.83;50.53;100609.22;5038341;27;97011;-55
2023/09/20 04:36:44;;;;;;;3.93;1.30;;;;;;;21.81;50.56;100604.19;5036451;27;106224;-55
2023/09/20 04:39:11;;;;;;;2.90;1.23;;;;;;;21.79;50.49;100595.59;5034532;27;96950;-55
2023/09/20 04:41:37;;;;;;;1.20;1.10;;;;;;;21.76;50.63;100596.00;5036335;27;97096;-55
2023/09/20 04:44:04;;;;;;;5.10;1.97;;;;;;;21.75;50.72;100600.88;5030853;27;96800;-55
2023/09/20 04:46:29;;;;;;;1.80;1.00;;;;;;;21.75;50.77;100600.88;5034994;27;96944;-55
2023/09/20 04:48:55;;;;;;;4.50;1.70;;;;;;;21.75;50.77;100597.31;5034055;27;96605;-55
2023/09/20 04:51:22;;;;;;;2.43;1.13;;;;;;;21.71;50.82;100596.97;5035954;27;96832;-55
2023/09/20 04:53:47;;;;;;;2.03;1.13;;;;;;;21.67;50.74;100614.16;5037842;27;97235;-55
2023/09/20 04:56:13;;;;;;;3.33;1.07;;;;;;;21.65;50.87;100602.78;5031222;27;110500;-55
2023/09/20 04:58:38;;;;;;;3.50;1.40;;;;;;;21.62;50.95;100606.75;5035734;27;97918;-55
2023/09/20 05:01:09;;;;;;;2.00;1.40;;;;;;;21.55;51.04;100615.94;5036287;27;97016;-55
2023/09/20 05:03:35;;;;;;;4.17;1.00;;;;;;;21.56;51.12;100606.22;5034489;27;96655;-55
2023/09/20 05:06:00;;;;;;;3.43;1.20;;;;;;;21.53;51.02;100615.78;5030377;27;108256;-55
2023/09/20 05:08:25;;;;;;;2.60;1.50;;;;;;;21.51;51.18;100613.53;5033885;27;98942;-55
2023/09/20 05:10:51;;;;;;;4.07;1.40;;;;;;;21.49;51.20;100609.81;5039673;27;96953;-55
2023/09/20 05:13:17;;;;;;;4.10;1.30;;;;;;;21.47;51.38;100609.66;5034389;27;103364;-56
2023/09/20 05:15:42;;;;;;;2.40;1.10;;;;;;;21.42;51.20;100619.00;5037411;27;97137;-56
2023/09/20 05:18:07;;;;;;;3.10;1.30;;;;;;;21.39;51.40;100614.53;5035254;27;98724;-55
2023/09/20 05:20:35;;;;;;;3.37;1.53;;;;;;;21.36;51.62;100610.81;5037991;27;97366;-56
2023/09/20 05:23:04;;;;;;;1.50;1.23;;;;;;;21.35;51.67;100603.75;5036973;27;96783;-56
2023/09/20 05:25:31;;;;;;;1.83;1.00;;;;;;;21.34;51.66;100598.72;5035053;27;96921;-55
2023/09/20 05:27:57;;;;;;;2.07;1.30;;;;;;;21.31;51.67;100597.06;5035307;27;96872;-55
2023/09/20 05:30:22;;;;;;;2.00;1.13;;;;;;;21.26;51.75;100587.56;5036067;27;96713;-55
2023/09/20 05:32:51;;;;;;;1.00;0.80;;;;;;;21.26;51.88;100587.56;5033303;27;97103;-55
2023/09/20 05:35:17;;;;;;;2.40;1.00;;;;;;;21.27;51.80;100593.91;5037534;27;97360;-55
2023/09/20 05:37:43;;;;;;;1.60;0.93;;;;;;;21.26;52.00;100595.97;5039487;27;97618;-55
2023/09/20 05:40:17;;;;;;;2.40;1.13;;;;;;;21.23;52.02;100599.88;5035577;27;97078;-55
2023/09/20 05:42:50;;;;;;;1.60;1.10;;;;;;;21.23;52.20;100599.16;5035141;27;97123;-55
2023/09/20 05:45:19;;;;;;;1.43;1.00;;;;;;;21.19;52.14;100596.00;5039026;27;97073;-55
2023/09/20 05:47:44;;;;;;;3.83;0.90;;;;;;;21.18;52.04;100600.88;5035844;27;97659;-55
2023/09/20 05:50:10;;;;;;;2.33;1.30;;;;;;;21.18;52.17;100600.88;5037252;27;97253;-55
2023/09/20 05:52:40;;;;;;;2.80;1.23;;;;;;;21.17;52.21;100595.81;5040944;27;97131;-55
2023/09/20 05:55:13;;;;;;;3.00;1.23;;;;;;;21.15;52.24;100596.41;5037023;27;97409;-55
2023/09/20 05:57:39;;;;;;;2.23;1.17;;;;;;;21.11;52.20;100601.63;5037369;27;97644;-55
2023/09/20 06:00:09;;;;;;;2.50;1.00;;;;;;;21.11;52.45;100601.63;5038501;27;97247;-55
2023/09/20 06:02:34;;;;;;;2.60;1.23;;;;;;;21.11;52.50;100601.63;5040434;27;97074;-54
2023/09/20 06:05:00;;;;;;;2.07;1.20;;;;;;;21.12;52.42;100605.19;5036736;27;97013;-55
2023/09/20 06:07:27;;;;;;;2.10;1.20;;;;;;;21.13;52.58;100603.88;5029659;27;97287;-55
2023/09/20 06:09:53;;;;;;;2.80;0.90;;;;;;;21.13;52.35;100606.66;5030965;27;97036;-55
2023/09/20 06:12:19;;;;;;;1.23;0.90;;;;;;;21.15;52.60;100595.66;5036664;27;97352;-54
2023/09/20 06:14:44;;;;;;;1.30;1.00;;;;;;;21.17;52.62;100598.63;5035927;27;97421;-56
2023/09/20 06:17:10;;;;;;;1.83;1.40;;;;;;;21.18;52.62;100595.28;5037154;27;97113;-57
2023/09/20 06:19:35;;;;;;;2.70;1.17;;;;;;;21.22;52.56;100592.06;5036915;27;97325;-55
2023/09/20 06:22:00;;;;;;;0.97;0.90;;;;;;;21.25;52.67;100602.84;5035070;27;96908;-56
2023/09/20 06:24:26;;;;;;;1.50;1.40;;;;;;;21.30;52.62;100598.34;5035580;27;99500;-55
2023/09/20 06:26:52;;;;;;;3.63;1.23;;;;;;;21.32;52.71;100596.47;5036738;27;111229;-55
2023/09/20 06:29:18;;;;;;;1.93;1.33;;;;;;;21.38;52.63;100601.88;5038236;27;97398;-55
2023/09/20 06:31:43;;;;;;;1.90;1.40;;;;;;;21.41;52.75;100595.13;5023880;27;97059;-54
2023/09/20 06:34:09;;;;;;;3.50;1.53;;;;;;;21.44;52.72;100594.00;5031366;27;97253;-56
2023/09/20 06:36:34;;;;;;;3.67;1.10;;;;;;;21.47;52.59;100595.66;5026525;27;97059;-54
2023/09/20 06:38:59;;;;;;;1.63;1.17;;;;;;;21.52;52.58;100603.06;5035788;27;96993;-55
2023/09/20 06:41:25;;;;;;;1.30;1.20;;;;;;;21.54;52.65;100600.44;5037666;27;97054;-55
2023/09/20 06:43:51;;;;;;;2.63;0.97;;;;;;;21.59;52.63;100599.47;5037010;27;97246;-55
2023/09/20 06:46:18;;;;;;;2.67;1.03;;;;;;;21.62;52.61;100601.88;5036317;27;97181;-55
2023/09/20 06:48:43;;;;;;;1.60;1.03;;;;;;;21.64;52.62;100601.31;5036190;27;96932;-55
2023/09/20 06:51:09;;;;;;;2.60;1.17;;;;;;;21.68;52.70;100604.47;5037379;27;96861;-56
2023/09/20 06:53:35;;;;;;;4.87;1.80;;;;;;;21.71;52.67;100603.31;5035021;27;98034;-55
2023/09/20 06:56:00;;;;;;;1.50;1.10;;;;;;;21.77;52.55;100609.44;5032435;27;97569;-55
2023/09/20 06:58:26;;;;;;;1.60;1.00;;;;;;;21.78;52.56;100607.34;5036180;27;97183;-55
2023/09/20 07:00:52;;;;;;;2.33;1.20;;;;;;;21.86;52.63;100611.66;5038514;27;96837;-55
2023/09/20 07:03:18;;;;;;;1.43;1.10;;;;;;;21.95;52.67;100613.06;5033023;27;100538;-55
2023/09/20 07:05:44;;;;;;;1.60;1.10;;;;;;;22.01;52.53;100614.31;5034662;27;97221;-55
2023/09/20 07:08:10;;;;;;;3.03;1.43;;;;;;;22.08;52.38;100609.97;5036922;27;97101;-55
2023/09/20 07:10:41;;;;;;;1.77;1.10;;;;;;;22.11;52.39;100609.53;5034549;27;96767;-55
2023/09/20 07:13:09;;;;;;;1.50;1.13;;;;;;;22.20;52.38;100606.09;5036405;27;98300;-55
2023/09/20 07:15:35;;;;;;;3.23;1.47;;;;;;;22.24;52.25;100608.50;5034628;27;97134;-55
2023/09/20 07:18:07;;;;;;;3.33;1.33;;;;;;;22.29;52.24;100599.09;5033945;27;96937;-56
2023/09/20 07:20:34;;;;;;;2.30;1.37;;;;;;;22.36;52.22;100603.91;5033927;27;97393;-56
2023/09/20 07:22:59;;;;;;;2.47;1.83;;;;;;;22.39;52.22;100602.72;5034449;27;97466;-55
2023/09/20 07:25:27;;;;;;;2.97;0.90;;;;;;;22.45;52.08;100603.25;5033772;27;97152;-55
2023/09/20 07:27:59;;;;;;;1.87;1.00;;;;;;;22.51;52.11;100592.53;5036433;27;97859;-55
2023/09/20 07:30:31;;;;;;;2.43;1.10;;;;;;;22.57;52.04;100593.00;5038950;27;96554;-55
2023/09/20 07:32:57;;;;;;;2.57;1.17;;;;;;;22.60;51.88;100591.16;5036127;27;97417;-55
2023/09/20 07:35:26;;;;;;;4.23;1.60;;;;;;;22.67;52.09;100590.31;5035309;27;97693;-56
2023/09/20 07:37:56;;;;;;;3.97;1.50;;;;;;;22.68;51.80;100597.41;5037806;27;97111;-55
2023/09/20 07:40:29;;;;;;;2.77;1.37;;;;;;;22.71;52.00;100588.59;5035873;27;96924;-55
2023/09/20 07:43:06;;;;;;;2.13;1.40;;;;;;;22.76;52.02;100586.84;5037243;27;96810;-55
2023/09/20 07:45:39;;;;;;;2.00;1.10;;;;;;;22.77;51.88;100594.69;5036471;27;97298;-55
2023/09/20 07:48:12;;;;;;;2.20;0.93;;;;;;;22.79;51.96;100602.50;5039164;27;97254;-55
2023/09/20 07:50:51;;;;;;;5.80;1.83;;;;;;;22.79;51.80;100602.50;5039399;27;97280;-55
2023/09/20 07:53:21;;;;;;;2.63;1.47;;;;;;;22.78;51.77;100601.03;5049293;27;98166;-55
2023/09/20 07:56:05;;;;;;;2.33;1.37;;;;;;;22.73;51.67;100596.41;5034678;27;96693;-55
2023/09/20 07:58:36;;;;;;;3.30;1.33;;;;;;;22.71;51.88;100593.44;5031572;27;96971;-56
2023/09/20 08:01:10;;;;;;;3.33;1.07;;;;;;;22.71;52.00;100611.03;5034240;27;97168;-55
2023/09/20 08:03:35;;;;;;;5.07;1.23;;;;;;;22.70;51.98;100605.97;5035077;27;97085;-55
2023/09/20 08:06:08;;;;;;;1.73;1.43;;;;;;;22.74;51.92;100597.88;5030820;27;96731;-55
2023/09/20 08:08:36;;;;;;;3.70;1.30;;;;;;;22.81;51.91;100602.66;5035062;27;96794;-54
2023/09/20 08:11:02;;;;;;;3.47;1.30;;;;;;;22.85;52.01;100600.94;5034659;27;96780;-55
2023/09/20 08:13:27;;;;;;;3.23;1.57;;;;;;;22.90;51.96;100602.00;5036128;27;105484;-56
2023/09/20 08:15:52;;;;;;;1.67;1.00;;;;;;;22.97;51.75;100598.38;5032459;27;111080;-55
2023/09/20 08:21:03;;;;;;;2.07;1.10;;;;;;;23.10;51.58;100600.81;5033160;27;97340;-55
2023/09/20 09:02:08;;;;;;;3.93;1.60;;;;;;;24.48;49.91;100624.88;5035368;27;96649;-55
2023/09/20 09:04:33;;;;;;;3.30;1.50;;;;;;;24.42;50.22;100613.16;5037013;27;96874;-55
2023/09/20 09:06:59;;;;;;;1.67;1.10;;;;;;;24.47;50.03;100612.16;5036699;27;96921;-55
2023/09/20 09:09:24;;;;;;;2.97;1.60;;;;;;;24.54;50.02;100608.44;5035758;27;104673;-55
2023/09/20 09:11:50;;;;;;;1.10;1.00;;;;;;;24.65;50.09;100607.13;5034125;27;97250;-55
2023/09/20 09:14:15;;;;;;;4.90;1.20;;;;;;;24.74;49.77;100630.97;5034475;27;99585;-55
2023/09/20 09:16:41;;;;;;;3.60;1.50;;;;;;;24.80;49.74;100604.03;5032843;27;96980;-55
2023/09/20 09:19:07;;;;;;;2.40;1.33;;;;;;;24.86;49.59;100598.09;5038298;27;97072;-55
2023/09/20 09:21:34;;;;;;;1.70;1.30;;;;;;;24.91;49.45;100603.44;5041065;27;96712;-55
2023/09/20 09:23:59;;;;;;;2.80;1.20;;;;;;;24.94;49.15;100588.19;5037674;27;97251;-55
2023/09/20 09:26:25;;;;;;;5.13;1.60;;;;;;;25.00;49.36;100593.50;5037181;27;97268;-55
2023/09/20 09:28:51;;;;;;;2.80;1.40;;;;;;;25.08;49.13;100580.72;5038850;27;96890;-55
2023/09/20 09:31:16;;;;;;;2.33;1.50;;;;;;;25.18;48.68;100578.63;5038070;27;97137;-56
2023/09/20 09:33:42;;;;;;;3.10;1.93;;;;;;;25.17;48.87;100588.41;5035994;27;97404;-55
2023/09/20 09:36:08;;;;;;;2.20;1.47;;;;;;;25.19;48.93;100585.75;5036232;27;96837;-56
2023/09/20 09:38:34;;;;;;;1.60;1.40;;;;;;;25.26;48.56;100578.47;5039001;27;97214;-55
2023/09/20 09:41:02;;;;;;;4.93;1.40;;;;;;;25.36;48.81;100586.88;5036473;27;96687;-55
2023/09/20 09:43:28;;;;;;;2.20;1.10;;;;;;;25.46;48.59;100584.78;5038928;27;96989;-55
2023/09/20 09:45:55;;;;;;;1.77;1.37;;;;;;;25.49;48.55;100589.97;5040241;27;97348;-55
2023/09/20 09:48:24;;;;;;;2.10;1.57;;;;;;;25.49;48.47;100594.88;5037232;27;96973;-55
2023/09/20 09:50:50;;;;;;;1.50;1.40;;;;;;;25.49;48.46;100592.78;5035444;27;97379;-55
2023/09/20 09:53:20;;;;;;;4.10;1.57;;;;;;;25.45;48.41;100595.31;5037888;27;97101;-54
2023/09/20 09:55:48;;;;;;;1.77;1.13;;;;;;;25.47;48.46;100583.47;5037301;27;97043;-56
2023/09/20 09:58:14;;;;;;;2.23;1.13;;;;;;;25.48;48.59;100587.75;5037448;27;97111;-55
2023/09/20 10:00:42;;;;;;;2.57;1.30;;;;;;;25.48;48.47;100577.22;5039273;27;96735;-56
2023/09/20 10:03:36;;;;;;;3.90;1.53;;;;;;;25.50;48.33;100597.09;5036859;27;97339;-55
2023/09/20 10:06:09;;;;;;;4.30;1.33;;;;;;;25.48;48.21;100585.69;5036351;27;98098;-55
2023/09/20 10:08:40;;;;;;;3.27;1.50;;;;;;;25.48;48.45;100593.38;5037032;27;96943;-56
2023/09/20 10:11:07;;;;;;;2.13;1.47;;;;;;;25.46;48.46;100587.59;5033358;27;96818;-56
2023/09/20 10:13:35;;;;;;;1.27;1.17;;;;;;;25.45;48.38;100594.56;5034290;27;96883;-55
2023/09/20 10:16:04;;;;;;;3.40;1.23;;;;;;;25.37;48.39;100591.91;5035927;27;97059;-56
2023/09/20 10:18:52;;;;;;;1.70;1.30;;;;;;;25.34;48.28;100595.19;5037856;27;97551;-56
2023/09/20 10:21:23;;;;;;;2.10;1.17;;;;;;;25.35;48.26;100583.31;5032686;27;97710;-55
2023/09/20 10:23:52;;;;;;;6.10;1.40;;;;;;;25.38;48.28;100573.66;5038732;27;96952;-55
2023/09/20 10:26:18;;;;;;;1.43;1.13;;;;;;;25.44;48.30;100573.38;5036092;27;97057;-56
2023/09/20 10:28:45;;;;;;;2.03;1.23;;;;;;;25.47;48.08;100575.00;5035521;27;97155;-56
2023/09/20 10:31:15;;;;;;;2.80;1.23;;;;;;;25.48;47.90;100565.97;5036508;27;96925;-55
2023/09/20 10:33:45;;;;;;;1.57;1.10;;;;;;;25.51;47.98;100575.28;5036480;27;97139;-55
2023/09/20 10:36:29;;;;;;;1.10;1.00;;;;;;;25.58;47.65;100569.47;5037286;27;96620;-55
2023/09/20 10:39:21;;;;;;;1.77;1.03;;;;;;;25.66;47.57;100569.28;5040699;27;98499;-55
2023/09/20 10:41:49;;;;;;;3.17;1.20;;;;;;;25.68;47.91;100566.59;5036636;27;97227;-56
2023/09/20 10:44:26;;;;;;;1.53;1.10;;;;;;;25.73;47.46;100574.00;5036599;27;97107;-56
2023/09/20 10:46:53;;;;;;;1.20;0.70;;;;;;;25.77;47.89;100580.66;5036905;27;97104;-55
2023/09/20 10:49:40;;;;;;;1.30;1.20;;;;;;;25.79;47.11;100577.22;5033912;27;97337;-55
2023/09/20 10:52:05;;;;;;;1.20;1.10;;;;;;;25.79;47.24;100569.53;5038500;27;96878;-56
2023/09/20 10:54:36;;;;;;;3.53;1.50;;;;;;;25.82;47.63;100581.66;5037954;27;97236;-55
2023/09/20 10:57:07;;;;;;;1.30;1.20;;;;;;;25.86;47.23;100577.03;5037087;27;96610;-56
2023/09/20 10:59:34;;;;;;;1.43;1.00;;;;;;;25.95;47.41;100569.84;5037999;27;97677;-56
2023/09/20 11:02:12;;;;;;;2.63;1.40;;;;;;;26.05;47.10;100567.72;5036541;27;96645;-55
2023/09/20 11:04:39;;;;;;;1.37;1.10;;;;;;;26.15;47.35;100568.41;5037671;27;96962;-55
2023/09/20 11:07:05;;;;;;;1.67;1.30;;;;;;;26.26;47.21;100583.94;5036839;27;96759;-56
2023/09/20 11:09:33;;;;;;;2.60;1.20;;;;;;;26.32;46.97;100570.25;5035284;27;97146;-56
2023/09/20 11:12:06;;;;;;;1.30;1.17;;;;;;;26.34;46.58;100562.63;5037865;27;97034;-56
2023/09/20 11:14:39;;;;;;;1.63;1.00;;;;;;;26.36;46.58;100559.97;5037916;27;97287;-56
2023/09/20 11:17:05;;;;;;;1.53;0.97;;;;;;;26.45;46.65;100564.06;5038032;27;97337;-55
2023/09/20 11:19:32;;;;;;;2.63;1.23;;;;;;;26.59;46.16;100557.22;5033894;27;97103;-55
2023/09/20 11:21:58;;;;;;;1.97;1.47;;;;;;;26.69;46.18;100566.34;5032495;27;97096;-55
2023/09/20 11:24:25;;;;;;;3.27;1.40;;;;;;;26.80;46.01;100559.28;5037815;27;96801;-55
2023/09/20 11:26:53;;;;;;;1.23;1.13;;;;;;;26.91;45.72;100561.41;5040051;27;97143;-55
2023/09/20 11:29:19;;;;;;;1.83;1.30;;;;;;;26.99;45.63;100564.75;5038905;27;96982;-55
2023/09/20 11:31:48;;;;;;;1.23;1.13;;;;;;;27.12;45.52;100564.16;5037188;27;97074;-56
2023/09/20 11:34:14;;;;;;;2.20;0.83;;;;;;;27.19;44.94;100557.56;5036736;27;96589;-55
2023/09/20 11:36:43;;;;;;;1.90;1.37;;;;;;;27.28;44.88;100556.69;5037196;27;96981;-56
2023/09/20 11:39:09;;;;;;;1.27;1.13;;;;;;;27.46;45.03;100557.09;5034828;27;97699;-55
2023/09/20 11:41:38;;;;;;;1.73;1.10;;;;;;;27.63;44.55;100553.91;5034438;27;97067;-54
2023/09/20 11:44:06;;;;;;;1.63;1.10;;;;;;;27.77;44.08;100548.34;5036832;27;97223;-55
2023/09/20 11:46:35;;;;;;;1.57;1.23;;;;;;;27.86;43.87;100558.81;5036322;27;98162;-55
2023/09/20 11:49:03;;;;;;;1.30;1.20;;;;;;;27.98;43.61;100565.94;5035134;27;96814;-55
2023/09/20 11:51:30;;;;;;;1.03;0.87;;;;;;;28.09;43.59;100556.69;5035612;27;96793;-55
2023/09/20 11:53:56;;;;;;;1.67;0.97;;;;;;;28.24;43.35;100560.34;5035483;27;97197;-56
2023/09/20 11:56:31;;;;;;;1.33;1.23;;;;;;;28.38;42.98;100556.25;5034771;27;97312;-55
2023/09/20 11:59:00;;;;;;;1.33;1.23;;;;;;;28.43;42.53;100557.94;5034510;27;96852;-56
2023/09/20 12:01:30;;;;;;;2.37;0.90;;;;;;;28.41;42.71;100563.50;5035547;27;97116;-55
2023/09/20 12:03:59;;;;;;;1.07;0.97;;;;;;;28.42;42.81;100556.47;5034582;27;96693;-56
2023/09/20 12:06:25;;;;;;;2.60;1.13;;;;;;;28.51;43.06;100560.50;5032526;27;96978;-55
2023/09/20 12:08:52;;;;;;;1.03;0.83;;;;;;;28.65;42.50;100569.81;5033490;27;97095;-55